sensor_id;sensor_type;location;lat;lon;timestamp;P1;durP1;ratioP1;P2;durP2;ratioP2
51848;SDS011;38952;51.090;-1.832;2022-08-21T00:00:14;11.52;;;1.83;;
51848;SDS011;38952;51.090;-1.832;2022-08-21T00:03:02;11.13;;;2.15;;
51848;SDS011;38952;51.090;-1.832;2022-08-21T00:05:30;6.95;;;1.63;;
51848;SDS011;38952;51.090;-1.832;2022-08-21T00:07:56;8.75;;;1.77;;
51848;SDS011;38952;51.090;-1.832;2022-08-21T00:10:22;9.15;;;1.70;;
51848;SDS011;38952;51.090;-1.832;2022-08-21T00:12:48;13.10;;;2.08;;
51848;SDS011;38952;51.090;-1.832;2022-08-21T00:15:16;11.45;;;1.90;;
51848;SDS011;38952;51.090;-1.832;2022-08-21T00:17:44;8.55;;;1.60;;
51848;SDS011;38952;51.090;-1.832;2022-08-21T00:20:10;6.40;;;1.70;;
51848;SDS011;38952;51.090;-1.832;2022-08-21T00:22:37;10.60;;;1.77;;
51848;SDS011;38952;51.090;-1.832;2022-08-21T00:25:03;7.82;;;1.38;;
51848;SDS011;38952;51.090;-1.832;2022-08-21T00:27:31;9.73;;;2.10;;
51848;SDS011;38952;51.090;-1.832;2022-08-21T00:29:57;6.18;;;1.52;;
51848;SDS011;38952;51.090;-1.832;2022-08-21T00:32:23;5.72;;;1.70;;
51848;SDS011;38952;51.090;-1.832;2022-08-21T00:34:50;10.10;;;2.58;;
51848;SDS011;38952;51.090;-1.832;2022-08-21T00:37:17;7.25;;;1.38;;
51848;SDS011;38952;51.090;-1.832;2022-08-21T00:39:43;6.60;;;1.55;;
51848;SDS011;38952;51.090;-1.832;2022-08-21T00:42:09;12.98;;;2.05;;
51848;SDS011;38952;51.090;-1.832;2022-08-21T00:44:35;8.82;;;1.50;;
51848;SDS011;38952;51.090;-1.832;2022-08-21T00:47:01;11.30;;;1.98;;
51848;SDS011;38952;51.090;-1.832;2022-08-21T00:49:26;10.07;;;1.73;;
51848;SDS011;38952;51.090;-1.832;2022-08-21T00:51:54;10.85;;;2.13;;
51848;SDS011;38952;51.090;-1.832;2022-08-21T00:54:24;6.95;;;1.80;;
51848;SDS011;38952;51.090;-1.832;2022-08-21T00:57:03;13.98;;;2.25;;
51848;SDS011;38952;51.090;-1.832;2022-08-21T00:59:32;7.93;;;1.95;;
51848;SDS011;38952;51.090;-1.832;2022-08-21T01:02:02;11.60;;;3.10;;
51848;SDS011;38952;51.090;-1.832;2022-08-21T01:04:29;7.70;;;1.75;;
51848;SDS011;38952;51.090;-1.832;2022-08-21T01:06:54;8.75;;;1.80;;
51848;SDS011;38952;51.090;-1.832;2022-08-21T01:09:20;6.70;;;1.50;;
51848;SDS011;38952;51.090;-1.832;2022-08-21T01:11:46;6.22;;;1.73;;
51848;SDS011;38952;51.090;-1.832;2022-08-21T01:14:13;8.77;;;2.00;;
51848;SDS011;38952;51.090;-1.832;2022-08-21T01:16:43;7.63;;;1.73;;
51848;SDS011;38952;51.090;-1.832;2022-08-21T01:19:11;10.25;;;2.15;;
51848;SDS011;38952;51.090;-1.832;2022-08-21T01:21:39;11.48;;;2.53;;
51848;SDS011;38952;51.090;-1.832;2022-08-21T01:24:04;8.57;;;2.25;;
51848;SDS011;38952;51.090;-1.832;2022-08-21T01:26:31;8.65;;;2.33;;
51848;SDS011;38952;51.090;-1.832;2022-08-21T01:32:03;12.20;;;2.33;;
51848;SDS011;38952;51.090;-1.832;2022-08-21T01:34:38;11.18;;;1.90;;
51848;SDS011;38952;51.090;-1.832;2022-08-21T01:37:05;11.38;;;1.95;;
51848;SDS011;38952;51.090;-1.832;2022-08-21T01:39:31;11.60;;;2.28;;
51848;SDS011;38952;51.090;-1.832;2022-08-21T01:41:57;10.98;;;2.15;;
51848;SDS011;38952;51.090;-1.832;2022-08-21T01:44:23;6.13;;;1.77;;
51848;SDS011;38952;51.090;-1.832;2022-08-21T01:46:50;10.57;;;1.85;;
51848;SDS011;38952;51.090;-1.832;2022-08-21T01:49:16;8.55;;;2.03;;
51848;SDS011;38952;51.090;-1.832;2022-08-21T01:51:42;7.75;;;2.60;;
51848;SDS011;38952;51.090;-1.832;2022-08-21T01:54:08;9.55;;;1.95;;
51848;SDS011;38952;51.090;-1.832;2022-08-21T01:56:38;8.07;;;1.98;;
51848;SDS011;38952;51.090;-1.832;2022-08-21T01:59:06;10.40;;;1.70;;
51848;SDS011;38952;51.090;-1.832;2022-08-21T02:01:32;5.97;;;1.65;;
51848;SDS011;38952;51.090;-1.832;2022-08-21T02:03:57;10.30;;;1.80;;
51848;SDS011;38952;51.090;-1.832;2022-08-21T02:06:24;5.68;;;1.50;;
51848;SDS011;38952;51.090;-1.832;2022-08-21T02:08:50;8.73;;;1.73;;
51848;SDS011;38952;51.090;-1.832;2022-08-21T02:11:16;8.82;;;1.80;;
51848;SDS011;38952;51.090;-1.832;2022-08-21T02:13:41;12.95;;;1.95;;
51848;SDS011;38952;51.090;-1.832;2022-08-21T02:16:07;10.88;;;1.90;;
51848;SDS011;38952;51.090;-1.832;2022-08-21T02:18:34;10.70;;;2.10;;
51848;SDS011;38952;51.090;-1.832;2022-08-21T02:21:00;5.47;;;1.77;;
51848;SDS011;38952;51.090;-1.832;2022-08-21T02:23:25;6.03;;;1.55;;
51848;SDS011;38952;51.090;-1.832;2022-08-21T02:25:51;5.63;;;1.38;;
51848;SDS011;38952;51.090;-1.832;2022-08-21T02:28:16;8.43;;;1.65;;
51848;SDS011;38952;51.090;-1.832;2022-08-21T02:30:43;8.75;;;1.80;;
51848;SDS011;38952;51.090;-1.832;2022-08-21T02:33:11;12.80;;;1.88;;
51848;SDS011;38952;51.090;-1.832;2022-08-21T02:35:38;6.60;;;1.30;;
51848;SDS011;38952;51.090;-1.832;2022-08-21T02:38:09;9.63;;;1.90;;
51848;SDS011;38952;51.090;-1.832;2022-08-21T02:40:37;5.25;;;1.75;;
51848;SDS011;38952;51.090;-1.832;2022-08-21T02:43:04;6.03;;;1.40;;
51848;SDS011;38952;51.090;-1.832;2022-08-21T02:45:31;9.63;;;1.95;;
51848;SDS011;38952;51.090;-1.832;2022-08-21T02:47:59;7.68;;;2.45;;
51848;SDS011;38952;51.090;-1.832;2022-08-21T02:50:31;6.72;;;2.03;;
51848;SDS011;38952;51.090;-1.832;2022-08-21T02:52:58;6.85;;;1.88;;
51848;SDS011;38952;51.090;-1.832;2022-08-21T02:55:26;8.90;;;2.10;;
51848;SDS011;38952;51.090;-1.832;2022-08-21T02:57:53;12.00;;;1.63;;
51848;SDS011;38952;51.090;-1.832;2022-08-21T03:00:20;4.40;;;1.50;;
51848;SDS011;38952;51.090;-1.832;2022-08-21T03:02:48;10.07;;;1.95;;
51848;SDS011;38952;51.090;-1.832;2022-08-21T03:05:14;7.18;;;1.90;;
51848;SDS011;38952;51.090;-1.832;2022-08-21T03:07:41;9.13;;;1.42;;
51848;SDS011;38952;51.090;-1.832;2022-08-21T03:10:08;6.47;;;1.75;;
51848;SDS011;38952;51.090;-1.832;2022-08-21T03:12:34;6.10;;;1.67;;
51848;SDS011;38952;51.090;-1.832;2022-08-21T03:15:01;8.32;;;1.70;;
51848;SDS011;38952;51.090;-1.832;2022-08-21T03:17:28;6.53;;;1.65;;
51848;SDS011;38952;51.090;-1.832;2022-08-21T03:19:54;3.95;;;1.50;;
51848;SDS011;38952;51.090;-1.832;2022-08-21T03:22:19;1.85;;;0.90;;
51848;SDS011;38952;51.090;-1.832;2022-08-21T03:24:45;3.25;;;1.00;;
51848;SDS011;38952;51.090;-1.832;2022-08-21T03:27:10;1.33;;;0.70;;
51848;SDS011;38952;51.090;-1.832;2022-08-21T03:29:38;1.50;;;0.70;;
51848;SDS011;38952;51.090;-1.832;2022-08-21T03:32:03;2.28;;;0.70;;
51848;SDS011;38952;51.090;-1.832;2022-08-21T03:34:29;4.63;;;0.60;;
51848;SDS011;38952;51.090;-1.832;2022-08-21T03:36:55;2.78;;;0.93;;
51848;SDS011;38952;51.090;-1.832;2022-08-21T03:39:22;3.03;;;0.88;;
51848;SDS011;38952;51.090;-1.832;2022-08-21T03:41:47;3.55;;;0.98;;
51848;SDS011;38952;51.090;-1.832;2022-08-21T03:44:13;3.08;;;0.73;;
51848;SDS011;38952;51.090;-1.832;2022-08-21T03:46:38;3.88;;;1.20;;
51848;SDS011;38952;51.090;-1.832;2022-08-21T03:49:05;5.45;;;1.38;;
51848;SDS011;38952;51.090;-1.832;2022-08-21T03:51:31;5.82;;;1.00;;
51848;SDS011;38952;51.090;-1.832;2022-08-21T03:53:58;6.82;;;1.58;;
51848;SDS011;38952;51.090;-1.832;2022-08-21T03:56:24;3.83;;;1.05;;
51848;SDS011;38952;51.090;-1.832;2022-08-21T03:58:49;4.78;;;1.33;;
51848;SDS011;38952;51.090;-1.832;2022-08-21T04:01:14;4.55;;;1.17;;
51848;SDS011;38952;51.090;-1.832;2022-08-21T04:03:40;2.60;;;0.75;;
51848;SDS011;38952;51.090;-1.832;2022-08-21T04:06:05;4.82;;;1.58;;
51848;SDS011;38952;51.090;-1.832;2022-08-21T04:08:31;4.35;;;0.95;;
51848;SDS011;38952;51.090;-1.832;2022-08-21T04:10:57;1.98;;;1.02;;
51848;SDS011;38952;51.090;-1.832;2022-08-21T04:13:23;0.52;;;0.50;;
51848;SDS011;38952;51.090;-1.832;2022-08-21T04:15:49;1.45;;;0.60;;
51848;SDS011;38952;51.090;-1.832;2022-08-21T04:18:15;0.70;;;0.50;;
51848;SDS011;38952;51.090;-1.832;2022-08-21T04:20:40;1.98;;;0.60;;
51848;SDS011;38952;51.090;-1.832;2022-08-21T04:23:08;2.88;;;0.47;;
51848;SDS011;38952;51.090;-1.832;2022-08-21T04:25:33;0.45;;;0.30;;
51848;SDS011;38952;51.090;-1.832;2022-08-21T04:27:59;1.70;;;0.50;;
51848;SDS011;38952;51.090;-1.832;2022-08-21T04:30:24;0.30;;;0.30;;
51848;SDS011;38952;51.090;-1.832;2022-08-21T04:32:50;0.63;;;0.30;;
51848;SDS011;38952;51.090;-1.832;2022-08-21T04:35:18;0.22;;;0.20;;
51848;SDS011;38952;51.090;-1.832;2022-08-21T04:37:45;0.20;;;0.20;;
51848;SDS011;38952;51.090;-1.832;2022-08-21T04:40:12;0.70;;;0.40;;
51848;SDS011;38952;51.090;-1.832;2022-08-21T04:42:44;0.57;;;0.30;;
51848;SDS011;38952;51.090;-1.832;2022-08-21T04:47:54;0.32;;;0.30;;
51848;SDS011;38952;51.090;-1.832;2022-08-21T04:50:24;1.15;;;0.68;;
51848;SDS011;38952;51.090;-1.832;2022-08-21T04:52:55;0.63;;;0.30;;
51848;SDS011;38952;51.090;-1.832;2022-08-21T04:55:21;0.50;;;0.30;;
51848;SDS011;38952;51.090;-1.832;2022-08-21T04:57:49;0.50;;;0.32;;
51848;SDS011;38952;51.090;-1.832;2022-08-21T05:00:16;0.30;;;0.20;;
51848;SDS011;38952;51.090;-1.832;2022-08-21T05:02:43;0.52;;;0.20;;
51848;SDS011;38952;51.090;-1.832;2022-08-21T05:05:09;0.93;;;0.38;;
51848;SDS011;38952;51.090;-1.832;2022-08-21T05:07:35;0.35;;;0.20;;
51848;SDS011;38952;51.090;-1.832;2022-08-21T05:10:02;0.52;;;0.32;;
51848;SDS011;38952;51.090;-1.832;2022-08-21T05:12:28;0.40;;;0.30;;
51848;SDS011;38952;51.090;-1.832;2022-08-21T05:14:55;1.95;;;0.35;;
51848;SDS011;38952;51.090;-1.832;2022-08-21T05:17:20;1.10;;;0.40;;
51848;SDS011;38952;51.090;-1.832;2022-08-21T05:19:46;1.25;;;0.52;;
51848;SDS011;38952;51.090;-1.832;2022-08-21T05:22:18;1.15;;;0.45;;
51848;SDS011;38952;51.090;-1.832;2022-08-21T05:24:44;1.75;;;0.63;;
51848;SDS011;38952;51.090;-1.832;2022-08-21T05:27:09;3.72;;;1.27;;
51848;SDS011;38952;51.090;-1.832;2022-08-21T05:29:35;3.45;;;0.98;;
51848;SDS011;38952;51.090;-1.832;2022-08-21T05:32:00;1.88;;;0.80;;
51848;SDS011;38952;51.090;-1.832;2022-08-21T05:34:26;3.58;;;1.10;;
51848;SDS011;38952;51.090;-1.832;2022-08-21T05:36:51;6.47;;;1.38;;
51848;SDS011;38952;51.090;-1.832;2022-08-21T05:39:17;2.33;;;1.05;;
51848;SDS011;38952;51.090;-1.832;2022-08-21T05:41:42;4.63;;;0.85;;
51848;SDS011;38952;51.090;-1.832;2022-08-21T05:44:08;4.22;;;0.88;;
51848;SDS011;38952;51.090;-1.832;2022-08-21T05:46:33;2.78;;;0.88;;
51848;SDS011;38952;51.090;-1.832;2022-08-21T05:48:58;5.05;;;1.33;;
51848;SDS011;38952;51.090;-1.832;2022-08-21T05:51:24;1.50;;;0.80;;
51848;SDS011;38952;51.090;-1.832;2022-08-21T05:53:49;1.30;;;0.60;;
51848;SDS011;38952;51.090;-1.832;2022-08-21T05:56:15;0.77;;;0.50;;
51848;SDS011;38952;51.090;-1.832;2022-08-21T05:58:42;0.45;;;0.40;;
51848;SDS011;38952;51.090;-1.832;2022-08-21T06:01:15;0.80;;;0.40;;
51848;SDS011;38952;51.090;-1.832;2022-08-21T06:03:40;4.28;;;0.55;;
51848;SDS011;38952;51.090;-1.832;2022-08-21T06:06:08;4.60;;;1.13;;
51848;SDS011;38952;51.090;-1.832;2022-08-21T06:08:35;3.45;;;1.17;;
51848;SDS011;38952;51.090;-1.832;2022-08-21T06:11:01;5.68;;;1.58;;
51848;SDS011;38952;51.090;-1.832;2022-08-21T06:13:28;7.55;;;1.70;;
51848;SDS011;38952;51.090;-1.832;2022-08-21T06:16:10;4.82;;;1.20;;
51848;SDS011;38952;51.090;-1.832;2022-08-21T06:18:38;3.93;;;1.20;;
51848;SDS011;38952;51.090;-1.832;2022-08-21T06:21:04;12.93;;;1.70;;
51848;SDS011;38952;51.090;-1.832;2022-08-21T06:23:32;4.13;;;1.25;;
51848;SDS011;38952;51.090;-1.832;2022-08-21T06:25:58;5.30;;;1.60;;
51848;SDS011;38952;51.090;-1.832;2022-08-21T06:28:23;4.63;;;1.42;;
51848;SDS011;38952;51.090;-1.832;2022-08-21T06:33:24;2.55;;;0.85;;
51848;SDS011;38952;51.090;-1.832;2022-08-21T06:35:50;3.42;;;0.98;;
51848;SDS011;38952;51.090;-1.832;2022-08-21T06:38:15;5.05;;;1.52;;
51848;SDS011;38952;51.090;-1.832;2022-08-21T06:40:41;5.28;;;1.20;;
51848;SDS011;38952;51.090;-1.832;2022-08-21T06:43:08;4.40;;;1.23;;
51848;SDS011;38952;51.090;-1.832;2022-08-21T06:45:35;4.78;;;1.30;;
51848;SDS011;38952;51.090;-1.832;2022-08-21T06:48:02;7.60;;;1.40;;
51848;SDS011;38952;51.090;-1.832;2022-08-21T06:50:28;7.18;;;1.45;;
51848;SDS011;38952;51.090;-1.832;2022-08-21T06:53:04;3.88;;;1.35;;
51848;SDS011;38952;51.090;-1.832;2022-08-21T06:55:32;3.38;;;1.10;;
51848;SDS011;38952;51.090;-1.832;2022-08-21T06:57:57;5.38;;;1.20;;
51848;SDS011;38952;51.090;-1.832;2022-08-21T07:00:23;4.00;;;1.20;;
51848;SDS011;38952;51.090;-1.832;2022-08-21T07:02:49;3.08;;;1.05;;
51848;SDS011;38952;51.090;-1.832;2022-08-21T07:05:14;5.35;;;1.17;;
51848;SDS011;38952;51.090;-1.832;2022-08-21T07:07:40;2.50;;;0.77;;
51848;SDS011;38952;51.090;-1.832;2022-08-21T07:10:05;2.05;;;0.85;;
51848;SDS011;38952;51.090;-1.832;2022-08-21T07:12:31;3.13;;;1.00;;
51848;SDS011;38952;51.090;-1.832;2022-08-21T07:14:57;1.27;;;0.50;;
51848;SDS011;38952;51.090;-1.832;2022-08-21T07:17:23;1.08;;;0.43;;
51848;SDS011;38952;51.090;-1.832;2022-08-21T07:19:48;1.42;;;0.60;;
51848;SDS011;38952;51.090;-1.832;2022-08-21T07:22:16;6.18;;;1.20;;
51848;SDS011;38952;51.090;-1.832;2022-08-21T07:24:45;2.97;;;0.95;;
51848;SDS011;38952;51.090;-1.832;2022-08-21T07:27:11;1.30;;;0.60;;
51848;SDS011;38952;51.090;-1.832;2022-08-21T07:29:36;7.22;;;0.88;;
51848;SDS011;38952;51.090;-1.832;2022-08-21T07:32:02;5.32;;;1.35;;
51848;SDS011;38952;51.090;-1.832;2022-08-21T07:34:28;5.72;;;1.52;;
51848;SDS011;38952;51.090;-1.832;2022-08-21T07:36:53;6.18;;;1.52;;
51848;SDS011;38952;51.090;-1.832;2022-08-21T07:39:19;9.27;;;1.48;;
51848;SDS011;38952;51.090;-1.832;2022-08-21T07:41:44;9.20;;;1.27;;
51848;SDS011;38952;51.090;-1.832;2022-08-21T07:44:10;5.95;;;1.83;;
51848;SDS011;38952;51.090;-1.832;2022-08-21T07:46:35;6.18;;;1.52;;
51848;SDS011;38952;51.090;-1.832;2022-08-21T07:49:01;8.07;;;1.38;;
51848;SDS011;38952;51.090;-1.832;2022-08-21T07:51:26;7.88;;;1.65;;
51848;SDS011;38952;51.090;-1.832;2022-08-21T07:53:54;11.60;;;1.92;;
51848;SDS011;38952;51.090;-1.832;2022-08-21T07:56:22;7.75;;;1.35;;
51848;SDS011;38952;51.090;-1.832;2022-08-21T07:58:47;8.82;;;1.50;;
51848;SDS011;38952;51.090;-1.832;2022-08-21T08:01:13;6.72;;;1.45;;
51848;SDS011;38952;51.090;-1.832;2022-08-21T08:03:39;7.15;;;1.65;;
51848;SDS011;38952;51.090;-1.832;2022-08-21T08:06:05;4.68;;;1.20;;
51848;SDS011;38952;51.090;-1.832;2022-08-21T08:08:33;8.52;;;2.08;;
51848;SDS011;38952;51.090;-1.832;2022-08-21T08:10:59;8.60;;;1.40;;
51848;SDS011;38952;51.090;-1.832;2022-08-21T08:13:26;8.15;;;1.05;;
51848;SDS011;38952;51.090;-1.832;2022-08-21T08:15:51;9.32;;;1.65;;
51848;SDS011;38952;51.090;-1.832;2022-08-21T08:18:17;7.75;;;1.38;;
51848;SDS011;38952;51.090;-1.832;2022-08-21T08:20:45;8.68;;;1.30;;
51848;SDS011;38952;51.090;-1.832;2022-08-21T08:23:13;7.18;;;1.42;;
51848;SDS011;38952;51.090;-1.832;2022-08-21T08:25:40;8.55;;;1.17;;
51848;SDS011;38952;51.090;-1.832;2022-08-21T08:28:06;8.20;;;1.40;;
51848;SDS011;38952;51.090;-1.832;2022-08-21T08:30:32;8.90;;;1.20;;
51848;SDS011;38952;51.090;-1.832;2022-08-21T08:32:57;4.30;;;1.25;;
51848;SDS011;38952;51.090;-1.832;2022-08-21T08:35:24;3.78;;;1.10;;
51848;SDS011;38952;51.090;-1.832;2022-08-21T08:37:51;8.60;;;1.27;;
51848;SDS011;38952;51.090;-1.832;2022-08-21T08:40:22;4.53;;;1.00;;
51848;SDS011;38952;51.090;-1.832;2022-08-21T08:43:05;5.18;;;0.82;;
51848;SDS011;38952;51.090;-1.832;2022-08-21T08:45:32;7.82;;;1.40;;
51848;SDS011;38952;51.090;-1.832;2022-08-21T08:48:02;5.07;;;0.90;;
51848;SDS011;38952;51.090;-1.832;2022-08-21T08:53:16;7.20;;;1.05;;
51848;SDS011;38952;51.090;-1.832;2022-08-21T08:55:47;5.43;;;1.80;;
51848;SDS011;38952;51.090;-1.832;2022-08-21T08:58:20;8.90;;;1.42;;
51848;SDS011;38952;51.090;-1.832;2022-08-21T09:00:50;2.90;;;0.75;;
51848;SDS011;38952;51.090;-1.832;2022-08-21T09:03:16;4.85;;;1.20;;
51848;SDS011;38952;51.090;-1.832;2022-08-21T09:05:45;4.72;;;1.80;;
51848;SDS011;38952;51.090;-1.832;2022-08-21T09:08:27;2.40;;;0.80;;
51848;SDS011;38952;51.090;-1.832;2022-08-21T09:11:04;2.38;;;0.90;;
51848;SDS011;38952;51.090;-1.832;2022-08-21T09:16:35;6.50;;;1.17;;
51848;SDS011;38952;51.090;-1.832;2022-08-21T09:22:23;4.93;;;0.95;;
51848;SDS011;38952;51.090;-1.832;2022-08-21T09:25:12;4.82;;;1.15;;
51848;SDS011;38952;51.090;-1.832;2022-08-21T09:27:48;6.50;;;1.17;;
51848;SDS011;38952;51.090;-1.832;2022-08-21T09:30:14;5.60;;;0.90;;
51848;SDS011;38952;51.090;-1.832;2022-08-21T09:32:39;5.28;;;1.35;;
51848;SDS011;38952;51.090;-1.832;2022-08-21T09:35:11;5.60;;;1.00;;
51848;SDS011;38952;51.090;-1.832;2022-08-21T09:37:51;6.45;;;1.30;;
51848;SDS011;38952;51.090;-1.832;2022-08-21T09:43:19;4.18;;;1.30;;
51848;SDS011;38952;51.090;-1.832;2022-08-21T09:45:47;5.43;;;1.17;;
51848;SDS011;38952;51.090;-1.832;2022-08-21T09:48:17;3.45;;;1.20;;
51848;SDS011;38952;51.090;-1.832;2022-08-21T09:50:44;4.75;;;1.05;;
51848;SDS011;38952;51.090;-1.832;2022-08-21T09:53:19;4.50;;;1.05;;
51848;SDS011;38952;51.090;-1.832;2022-08-21T09:55:49;4.40;;;1.15;;
51848;SDS011;38952;51.090;-1.832;2022-08-21T09:58:37;8.98;;;1.55;;
51848;SDS011;38952;51.090;-1.832;2022-08-21T10:01:05;4.55;;;0.90;;
51848;SDS011;38952;51.090;-1.832;2022-08-21T10:03:31;3.08;;;1.00;;
51848;SDS011;38952;51.090;-1.832;2022-08-21T10:06:04;5.07;;;1.08;;
51848;SDS011;38952;51.090;-1.832;2022-08-21T10:08:35;6.03;;;1.23;;
51848;SDS011;38952;51.090;-1.832;2022-08-21T10:11:06;3.05;;;1.10;;
51848;SDS011;38952;51.090;-1.832;2022-08-21T10:16:18;3.17;;;0.95;;
51848;SDS011;38952;51.090;-1.832;2022-08-21T10:25:31;3.60;;;0.90;;
51848;SDS011;38952;51.090;-1.832;2022-08-21T10:28:00;4.93;;;1.13;;
51848;SDS011;38952;51.090;-1.832;2022-08-21T10:35:44;5.20;;;1.38;;
51848;SDS011;38952;51.090;-1.832;2022-08-21T10:49:51;5.30;;;1.27;;
51848;SDS011;38952;51.090;-1.832;2022-08-21T11:00:23;5.22;;;1.60;;
51848;SDS011;38952;51.090;-1.832;2022-08-21T11:05:31;2.85;;;1.23;;
51848;SDS011;38952;51.090;-1.832;2022-08-21T11:08:08;2.47;;;1.10;;
51848;SDS011;38952;51.090;-1.832;2022-08-21T11:10:45;5.28;;;1.75;;
51848;SDS011;38952;51.090;-1.832;2022-08-21T11:13:40;2.90;;;1.23;;
51848;SDS011;38952;51.090;-1.832;2022-08-21T11:18:38;3.50;;;1.55;;
51848;SDS011;38952;51.090;-1.832;2022-08-21T11:21:15;2.90;;;1.23;;
51848;SDS011;38952;51.090;-1.832;2022-08-21T11:23:55;5.43;;;1.40;;
51848;SDS011;38952;51.090;-1.832;2022-08-21T11:26:41;4.32;;;1.40;;
51848;SDS011;38952;51.090;-1.832;2022-08-21T11:29:13;4.38;;;1.38;;
51848;SDS011;38952;51.090;-1.832;2022-08-21T11:31:48;2.70;;;1.20;;
51848;SDS011;38952;51.090;-1.832;2022-08-21T11:39:53;5.30;;;1.73;;
51848;SDS011;38952;51.090;-1.832;2022-08-21T11:42:38;4.65;;;1.25;;
51848;SDS011;38952;51.090;-1.832;2022-08-21T11:50:57;3.47;;;1.40;;
51848;SDS011;38952;51.090;-1.832;2022-08-21T11:53:31;6.63;;;1.98;;
51848;SDS011;38952;51.090;-1.832;2022-08-21T11:58:45;6.28;;;1.65;;
51848;SDS011;38952;51.090;-1.832;2022-08-21T12:01:17;9.43;;;1.23;;
51848;SDS011;38952;51.090;-1.832;2022-08-21T12:06:34;6.70;;;1.08;;
51848;SDS011;38952;51.090;-1.832;2022-08-21T12:09:08;5.65;;;1.48;;
51848;SDS011;38952;51.090;-1.832;2022-08-21T12:11:51;3.50;;;1.33;;
51848;SDS011;38952;51.090;-1.832;2022-08-21T12:14:38;5.88;;;1.38;;
51848;SDS011;38952;51.090;-1.832;2022-08-21T12:17:18;3.05;;;1.50;;
51848;SDS011;38952;51.090;-1.832;2022-08-21T12:19:58;3.40;;;1.42;;
51848;SDS011;38952;51.090;-1.832;2022-08-21T12:25:21;9.48;;;1.90;;
51848;SDS011;38952;51.090;-1.832;2022-08-21T12:27:49;3.58;;;1.60;;
51848;SDS011;38952;51.090;-1.832;2022-08-21T12:32:55;5.30;;;1.77;;
51848;SDS011;38952;51.090;-1.832;2022-08-21T12:35:22;3.38;;;1.50;;
51848;SDS011;38952;51.090;-1.832;2022-08-21T12:40:56;9.95;;;1.95;;
51848;SDS011;38952;51.090;-1.832;2022-08-21T12:43:31;8.77;;;1.88;;
51848;SDS011;38952;51.090;-1.832;2022-08-21T12:46:01;6.13;;;1.58;;
51848;SDS011;38952;51.090;-1.832;2022-08-21T12:48:31;4.35;;;1.88;;
51848;SDS011;38952;51.090;-1.832;2022-08-21T12:51:14;11.38;;;1.65;;
51848;SDS011;38952;51.090;-1.832;2022-08-21T12:53:51;4.75;;;1.33;;
51848;SDS011;38952;51.090;-1.832;2022-08-21T12:56:21;5.32;;;1.30;;
51848;SDS011;38952;51.090;-1.832;2022-08-21T12:58:54;7.80;;;1.45;;
51848;SDS011;38952;51.090;-1.832;2022-08-21T13:01:33;6.57;;;1.48;;
51848;SDS011;38952;51.090;-1.832;2022-08-21T13:04:07;6.82;;;1.50;;
51848;SDS011;38952;51.090;-1.832;2022-08-21T13:06:54;5.90;;;1.40;;
51848;SDS011;38952;51.090;-1.832;2022-08-21T13:09:24;7.72;;;1.60;;
51848;SDS011;38952;51.090;-1.832;2022-08-21T13:11:52;4.38;;;1.15;;
51848;SDS011;38952;51.090;-1.832;2022-08-21T13:14:38;5.88;;;1.60;;
51848;SDS011;38952;51.090;-1.832;2022-08-21T13:17:06;5.65;;;1.85;;
51848;SDS011;38952;51.090;-1.832;2022-08-21T13:19:32;6.97;;;1.50;;
51848;SDS011;38952;51.090;-1.832;2022-08-21T13:21:58;3.65;;;1.27;;
51848;SDS011;38952;51.090;-1.832;2022-08-21T13:24:28;6.78;;;1.48;;
51848;SDS011;38952;51.090;-1.832;2022-08-21T13:29:27;5.95;;;1.63;;
51848;SDS011;38952;51.090;-1.832;2022-08-21T13:31:58;4.80;;;1.33;;
51848;SDS011;38952;51.090;-1.832;2022-08-21T13:34:28;6.07;;;1.40;;
51848;SDS011;38952;51.090;-1.832;2022-08-21T13:36:59;5.00;;;1.40;;
51848;SDS011;38952;51.090;-1.832;2022-08-21T13:39:29;2.92;;;1.20;;
51848;SDS011;38952;51.090;-1.832;2022-08-21T13:41:56;6.35;;;1.30;;
51848;SDS011;38952;51.090;-1.832;2022-08-21T13:44:36;4.65;;;1.08;;
51848;SDS011;38952;51.090;-1.832;2022-08-21T13:47:06;6.60;;;1.65;;
51848;SDS011;38952;51.090;-1.832;2022-08-21T13:49:35;4.60;;;1.35;;
51848;SDS011;38952;51.090;-1.832;2022-08-21T13:52:05;4.53;;;1.50;;
51848;SDS011;38952;51.090;-1.832;2022-08-21T13:54:40;4.05;;;1.30;;
51848;SDS011;38952;51.090;-1.832;2022-08-21T13:57:29;5.38;;;1.20;;
51848;SDS011;38952;51.090;-1.832;2022-08-21T14:03:07;5.65;;;1.60;;
51848;SDS011;38952;51.090;-1.832;2022-08-21T14:05:42;3.17;;;1.27;;
51848;SDS011;38952;51.090;-1.832;2022-08-21T14:08:14;4.50;;;1.48;;
51848;SDS011;38952;51.090;-1.832;2022-08-21T14:10:49;3.00;;;1.05;;
51848;SDS011;38952;51.090;-1.832;2022-08-21T14:13:38;3.40;;;1.40;;
51848;SDS011;38952;51.090;-1.832;2022-08-21T14:16:19;8.27;;;1.67;;
51848;SDS011;38952;51.090;-1.832;2022-08-21T14:19:07;10.05;;;2.10;;
51848;SDS011;38952;51.090;-1.832;2022-08-21T14:21:40;7.85;;;2.20;;
51848;SDS011;38952;51.090;-1.832;2022-08-21T14:26:48;7.25;;;1.10;;
51848;SDS011;38952;51.090;-1.832;2022-08-21T14:29:16;5.20;;;1.65;;
51848;SDS011;38952;51.090;-1.832;2022-08-21T14:31:48;5.75;;;1.38;;
51848;SDS011;38952;51.090;-1.832;2022-08-21T14:34:15;10.60;;;1.73;;
51848;SDS011;38952;51.090;-1.832;2022-08-21T14:36:42;6.80;;;1.75;;
51848;SDS011;38952;51.090;-1.832;2022-08-21T14:39:08;4.20;;;1.25;;
51848;SDS011;38952;51.090;-1.832;2022-08-21T14:41:34;5.75;;;1.23;;
51848;SDS011;38952;51.090;-1.832;2022-08-21T14:44:02;6.45;;;1.50;;
51848;SDS011;38952;51.090;-1.832;2022-08-21T14:46:30;5.38;;;1.30;;
51848;SDS011;38952;51.090;-1.832;2022-08-21T14:48:57;5.80;;;1.25;;
51848;SDS011;38952;51.090;-1.832;2022-08-21T14:51:22;11.88;;;1.80;;
51848;SDS011;38952;51.090;-1.832;2022-08-21T14:53:48;9.20;;;1.38;;
51848;SDS011;38952;51.090;-1.832;2022-08-21T14:56:13;5.75;;;1.55;;
51848;SDS011;38952;51.090;-1.832;2022-08-21T14:58:41;7.47;;;1.63;;
51848;SDS011;38952;51.090;-1.832;2022-08-21T15:01:12;8.77;;;1.80;;
51848;SDS011;38952;51.090;-1.832;2022-08-21T15:03:40;5.22;;;1.50;;
51848;SDS011;38952;51.090;-1.832;2022-08-21T15:06:06;3.40;;;1.10;;
51848;SDS011;38952;51.090;-1.832;2022-08-21T15:08:32;6.63;;;1.65;;
51848;SDS011;38952;51.090;-1.832;2022-08-21T15:10:59;4.90;;;1.50;;
51848;SDS011;38952;51.090;-1.832;2022-08-21T15:13:26;4.57;;;1.38;;
51848;SDS011;38952;51.090;-1.832;2022-08-21T15:15:52;5.00;;;1.30;;
51848;SDS011;38952;51.090;-1.832;2022-08-21T15:18:19;9.07;;;1.27;;
51848;SDS011;38952;51.090;-1.832;2022-08-21T15:20:45;5.03;;;1.27;;
51848;SDS011;38952;51.090;-1.832;2022-08-21T15:23:10;8.43;;;1.90;;
51848;SDS011;38952;51.090;-1.832;2022-08-21T15:25:36;4.47;;;1.30;;
51848;SDS011;38952;51.090;-1.832;2022-08-21T15:28:06;4.85;;;1.42;;
51848;SDS011;38952;51.090;-1.832;2022-08-21T15:30:31;8.57;;;1.80;;
51848;SDS011;38952;51.090;-1.832;2022-08-21T15:32:57;4.35;;;0.98;;
51848;SDS011;38952;51.090;-1.832;2022-08-21T15:35:22;6.68;;;1.45;;
51848;SDS011;38952;51.090;-1.832;2022-08-21T15:37:48;2.40;;;1.20;;
51848;SDS011;38952;51.090;-1.832;2022-08-21T15:40:14;7.70;;;1.60;;
51848;SDS011;38952;51.090;-1.832;2022-08-21T15:42:40;6.53;;;1.40;;
51848;SDS011;38952;51.090;-1.832;2022-08-21T15:45:07;4.68;;;1.40;;
51848;SDS011;38952;51.090;-1.832;2022-08-21T15:47:35;4.88;;;1.50;;
51848;SDS011;38952;51.090;-1.832;2022-08-21T15:50:03;8.88;;;1.58;;
51848;SDS011;38952;51.090;-1.832;2022-08-21T15:52:32;6.85;;;1.33;;
51848;SDS011;38952;51.090;-1.832;2022-08-21T15:54:58;4.28;;;1.20;;
51848;SDS011;38952;51.090;-1.832;2022-08-21T15:57:24;4.55;;;1.00;;
51848;SDS011;38952;51.090;-1.832;2022-08-21T15:59:56;4.15;;;1.10;;
51848;SDS011;38952;51.090;-1.832;2022-08-21T16:02:25;5.00;;;1.40;;
51848;SDS011;38952;51.090;-1.832;2022-08-21T16:04:54;8.05;;;1.27;;
51848;SDS011;38952;51.090;-1.832;2022-08-21T16:07:20;8.07;;;1.75;;
51848;SDS011;38952;51.090;-1.832;2022-08-21T16:09:46;4.60;;;1.27;;
51848;SDS011;38952;51.090;-1.832;2022-08-21T16:12:13;3.35;;;1.33;;
51848;SDS011;38952;51.090;-1.832;2022-08-21T16:14:58;3.85;;;1.30;;